Aérodrome :
LOGIN :

S'inscrire | Disclaimer

   EN    FR    IT 

 










Légende :    VFR   VFR Marginal   IFR   IFR Intensif   IFR Très Intensif
Visi : 
Plafond : 
>= 8 km
>= 3000ft
5 à 8 km
1000 à 3000 ft
1500m à 5 km
500 à 1000 ft
800 à 1500m
200 à 500 ft
< 800m
< 200 ft
Symboles :   Orages  Brouillard  Fortes neiges  Fortes précipitations  Vent > 20 kt
SIGMETs :   Divers  Orages  Givrage  Turbulence  Onde Orograph.  Cendres Volcan.







- Altitude de l'aérodrome : 1585 ft
- Code IATA : SIR


LSGS - Sion

DERNIER METAR :
  • 162220Z AUTO VRB01KT 9999 BKN014 01/M02 Q1019

METARs EXPIRÉS :
  • 162150Z AUTO VRB01KT 9999 NCD 00/M02 Q1019
  • 162120Z AUTO VRB01KT 9999 BKN080 SCT110 00/M02 Q1019
  • 162050Z AUTO VRB01KT 9999 SCT100 00/M02 Q1018
  • 162020Z AUTO VRB03KT 9999 BKN080 BKN110 M00/M02 Q1018
  • 161950Z AUTO 10003KT 050V120 9999 SCT080 BKN100 00/M02 Q1018

TAF TAF LSGS
Valide du 16 à 15h jusqu'au 17 à 00h UTC


161425Z 1615/1624 VRB03KT 9999 FEW010 BKN080
TEMPO 1618/1621 4000 -SHSN OVC014
Pas de NOTAMs connus pour ce terrain.



MET'MAP, la Météo Aéronautique d'un coup d'oeil ! - Copyright ORBIFLY Décembre 2007 - Disclaimer

ORBIFLY MET'MAP TEAM :

Programmation & Développement : Alexandra Zaïnal
Conception & Développement : Baudouin d'Aumeries
Co-Programmation & Développement : Marc-Olivier Méhu
Soutien technique & logistique : Manuel Goepfert

Contact : metmap@orbifly.com




SOURCES & CREDITS :

   NOAA